createdAt,value
2018-04-30T00:00:57.439Z,5.60
2018-04-30T00:01:57.440Z,5.50
2018-04-30T00:02:57.440Z,5.40
2018-04-30T00:03:57.439Z,5.30
2018-04-30T00:04:57.434Z,5.40
2018-04-30T00:05:57.444Z,5.30
2018-04-30T00:06:57.435Z,5.50
2018-04-30T00:07:57.437Z,5.60
2018-04-30T00:08:57.433Z,5.60
2018-04-30T00:09:57.430Z,5.60
2018-04-30T00:10:57.432Z,5.60
2018-04-30T00:11:57.436Z,5.70
2018-04-30T00:12:57.430Z,5.70
2018-04-30T00:13:57.431Z,5.60
2018-04-30T00:14:57.433Z,5.80
2018-04-30T00:15:57.426Z,5.60
2018-04-30T00:16:57.430Z,5.60
2018-04-30T00:17:57.428Z,5.80
2018-04-30T00:18:57.426Z,5.80
2018-04-30T00:19:57.424Z,5.80
2018-04-30T00:20:57.425Z,5.60
2018-04-30T00:21:57.422Z,5.60
2018-04-30T00:22:57.465Z,6.00
2018-04-30T00:23:57.422Z,5.50
2018-04-30T00:24:57.420Z,5.90
2018-04-30T00:25:57.420Z,5.90
2018-04-30T00:26:57.419Z,6.20
2018-04-30T00:27:57.417Z,5.70
2018-04-30T00:28:57.415Z,5.90
2018-04-30T00:29:57.416Z,6.10
2018-04-30T00:30:57.415Z,6.00
2018-04-30T00:31:57.412Z,5.60
2018-04-30T00:32:57.415Z,5.70
2018-04-30T00:33:57.413Z,6.10
2018-04-30T00:34:57.410Z,6.00
2018-04-30T00:35:57.409Z,6.30
2018-04-30T00:36:57.405Z,6.10
2018-04-30T00:37:57.407Z,6.50
2018-04-30T00:38:57.407Z,5.80
2018-04-30T00:39:57.406Z,6.10
2018-04-30T00:40:57.404Z,6.10
2018-04-30T00:41:57.405Z,6.00
2018-04-30T00:42:57.403Z,6.00
2018-04-30T00:43:57.406Z,5.80
2018-04-30T00:44:57.405Z,6.10
2018-04-30T00:45:57.400Z,6.20
2018-04-30T00:46:57.399Z,6.40
2018-04-30T00:47:57.397Z,6.40
2018-04-30T00:48:57.397Z,6.10
2018-04-30T00:49:57.396Z,6.20
2018-04-30T00:50:57.395Z,6.40
2018-04-30T00:51:57.392Z,6.30
2018-04-30T00:52:57.397Z,6.20
2018-04-30T00:53:57.396Z,6.20
2018-04-30T00:54:57.391Z,6.70
2018-04-30T00:55:57.389Z,6.10
2018-04-30T00:56:57.399Z,6.40
2018-04-30T00:57:57.390Z,6.10
2018-04-30T00:58:57.385Z,6.40
2018-04-30T00:59:57.389Z,6.50
2018-04-30T01:00:57.385Z,6.70
2018-04-30T01:01:57.383Z,6.60
2018-04-30T01:02:57.381Z,6.60
2018-04-30T01:03:57.379Z,6.50
2018-04-30T01:04:57.384Z,6.40
2018-04-30T01:05:57.381Z,6.80
2018-04-30T01:06:57.381Z,6.40
2018-04-30T01:07:57.378Z,6.40
2018-04-30T01:08:57.378Z,6.60
2018-04-30T01:09:57.378Z,6.50
2018-04-30T01:10:57.377Z,6.70
2018-04-30T01:11:57.376Z,6.70
2018-04-30T01:12:57.372Z,7.00
2018-04-30T01:13:57.374Z,7.20
2018-04-30T01:14:57.372Z,7.20
2018-04-30T01:15:57.367Z,7.20
2018-04-30T01:16:57.372Z,7.30
2018-04-30T01:17:57.369Z,7.20
2018-04-30T01:18:57.367Z,7.20
2018-04-30T01:19:57.365Z,7.80
2018-04-30T01:20:57.366Z,6.80
2018-04-30T01:21:57.365Z,7.40
2018-04-30T01:22:57.362Z,7.20
2018-04-30T01:23:57.363Z,7.10
2018-04-30T01:24:57.366Z,7.50
2018-04-30T01:25:57.359Z,7.60
2018-04-30T01:26:57.359Z,7.50
2018-04-30T01:27:57.359Z,7.90
2018-04-30T01:28:57.358Z,7.70
2018-04-30T01:29:57.355Z,7.70
2018-04-30T01:30:57.352Z,8.10
2018-04-30T01:31:57.354Z,7.60
2018-04-30T01:32:57.352Z,8.30
2018-04-30T01:33:57.351Z,7.80
2018-04-30T01:34:57.351Z,7.80
2018-04-30T01:35:57.349Z,8.10
2018-04-30T01:36:57.349Z,8.40
2018-04-30T01:37:57.358Z,7.80
2018-04-30T01:38:57.343Z,8.20
2018-04-30T01:39:57.344Z,8.30
2018-04-30T01:40:57.343Z,8.40
2018-04-30T01:41:57.344Z,8.50
2018-04-30T01:42:57.337Z,8.20
2018-04-30T01:43:57.341Z,8.70
2018-04-30T01:44:57.341Z,8.90
2018-04-30T01:45:57.337Z,9.10
2018-04-30T01:46:57.336Z,8.80
2018-04-30T01:47:57.336Z,8.10
2018-04-30T01:48:57.335Z,8.80
2018-04-30T01:49:57.335Z,9.10
2018-04-30T01:50:57.333Z,8.80
2018-04-30T01:51:57.329Z,8.50
2018-04-30T01:52:57.331Z,9.10
2018-04-30T01:53:57.330Z,9.30
2018-04-30T01:54:57.330Z,8.70
2018-04-30T01:55:57.329Z,8.90
2018-04-30T01:56:57.325Z,9.10
2018-04-30T01:57:57.326Z,9.70
2018-04-30T01:58:57.322Z,9.10
2018-04-30T01:59:57.323Z,9.70
2018-04-30T02:00:57.322Z,9.30
2018-04-30T02:01:57.322Z,9.90
2018-04-30T02:02:57.320Z,9.90
2018-04-30T02:03:57.318Z,9.10
2018-04-30T02:04:57.314Z,9.50
2018-04-30T02:05:57.317Z,10.30
2018-04-30T02:06:57.315Z,10.00
2018-04-30T02:07:57.313Z,9.60
2018-04-30T02:08:57.310Z,9.40
2018-04-30T02:09:57.312Z,9.90
2018-04-30T02:10:57.309Z,10.10
2018-04-30T02:11:57.310Z,10.30
2018-04-30T02:12:57.308Z,10.30
2018-04-30T02:13:57.306Z,10.40
2018-04-30T02:14:57.304Z,10.20
2018-04-30T02:15:57.306Z,10.60
2018-04-30T02:16:57.305Z,10.60
2018-04-30T02:17:57.303Z,10.30
2018-04-30T02:18:57.300Z,9.90
2018-04-30T02:19:57.299Z,10.00
2018-04-30T02:20:57.304Z,10.30
2018-04-30T02:21:57.297Z,10.80
2018-04-30T02:22:57.294Z,10.70
2018-04-30T02:23:57.298Z,10.90
2018-04-30T02:24:57.293Z,11.00
2018-04-30T02:25:57.293Z,10.30
2018-04-30T02:26:57.290Z,10.00
2018-04-30T02:27:57.292Z,11.00
2018-04-30T02:28:57.288Z,10.30
2018-04-30T02:29:57.293Z,10.50
2018-04-30T02:30:57.289Z,10.50
2018-04-30T02:31:57.288Z,10.10
2018-04-30T02:32:57.282Z,10.30
2018-04-30T02:33:57.283Z,10.70
2018-04-30T02:34:57.281Z,10.70
2018-04-30T02:35:57.278Z,11.10
2018-04-30T02:36:57.282Z,10.10
2018-04-30T02:37:57.275Z,10.70
2018-04-30T02:38:57.274Z,10.50
2018-04-30T02:39:57.272Z,10.70
2018-04-30T02:40:57.278Z,10.80
2018-04-30T02:41:57.275Z,11.00
2018-04-30T02:42:57.268Z,10.90
2018-04-30T02:43:57.268Z,10.70
2018-04-30T02:44:57.268Z,11.00
2018-04-30T02:45:57.265Z,11.40
2018-04-30T02:46:57.260Z,11.10
2018-04-30T02:47:57.264Z,10.60
2018-04-30T02:48:57.261Z,10.90
2018-04-30T02:49:57.260Z,10.90
2018-04-30T02:50:57.260Z,10.80
2018-04-30T02:51:57.256Z,10.60
2018-04-30T02:52:57.257Z,10.90
2018-04-30T02:53:57.259Z,10.70
2018-04-30T02:54:57.257Z,10.50
2018-04-30T02:55:57.252Z,11.10
2018-04-30T02:56:57.248Z,10.40
2018-04-30T02:57:57.252Z,10.70
2018-04-30T02:58:57.247Z,10.60
2018-04-30T02:59:57.246Z,10.20
2018-04-30T03:00:57.244Z,10.40
2018-04-30T03:01:57.253Z,11.20
2018-04-30T03:02:57.245Z,10.60
2018-04-30T03:03:57.244Z,10.80
2018-04-30T03:04:57.239Z,10.30
2018-04-30T03:05:57.239Z,10.70
2018-04-30T03:06:57.241Z,10.40
2018-04-30T03:07:57.238Z,10.20
2018-04-30T03:08:57.236Z,9.70
2018-04-30T03:09:57.235Z,10.40
2018-04-30T03:10:57.233Z,10.80
2018-04-30T03:11:57.236Z,10.60
2018-04-30T03:12:57.228Z,10.70
2018-04-30T03:13:57.228Z,10.80
2018-04-30T03:14:57.229Z,10.50
2018-04-30T03:15:57.310Z,10.10
2018-04-30T03:16:57.232Z,10.10
2018-04-30T03:17:57.225Z,10.30
2018-04-30T03:18:57.225Z,10.20
2018-04-30T03:19:57.223Z,10.50
2018-04-30T03:20:57.229Z,10.40
2018-04-30T03:21:57.219Z,10.50
2018-04-30T03:22:57.217Z,10.00
2018-04-30T03:23:57.218Z,10.20
2018-04-30T03:24:57.215Z,10.50
2018-04-30T03:25:57.219Z,10.40
2018-04-30T03:26:57.214Z,10.30
2018-04-30T03:27:57.210Z,10.20
2018-04-30T03:28:57.210Z,10.10
2018-04-30T03:29:57.205Z,9.90
2018-04-30T03:30:57.207Z,10.10
2018-04-30T03:31:57.208Z,10.40
2018-04-30T03:32:57.207Z,10.20
2018-04-30T03:33:57.207Z,10.30
2018-04-30T03:34:57.201Z,9.80
2018-04-30T03:35:57.200Z,10.50
2018-04-30T03:36:57.198Z,10.30
2018-04-30T03:37:57.198Z,10.00
2018-04-30T03:38:57.196Z,10.10
2018-04-30T03:39:57.194Z,9.60
2018-04-30T03:40:57.244Z,9.80
2018-04-30T03:41:57.192Z,9.00
2018-04-30T03:42:57.190Z,9.30
2018-04-30T03:43:57.195Z,9.70
2018-04-30T03:44:57.187Z,9.30
2018-04-30T03:45:57.187Z,8.80
2018-04-30T03:46:57.185Z,9.40
2018-04-30T03:47:57.181Z,9.60
2018-04-30T03:48:57.181Z,9.10
2018-04-30T03:49:57.180Z,9.20
2018-04-30T03:50:57.175Z,8.90
2018-04-30T03:51:57.177Z,9.20
2018-04-30T03:52:57.182Z,9.10
2018-04-30T03:53:57.178Z,9.40
2018-04-30T03:54:57.171Z,9.00
2018-04-30T03:55:57.170Z,9.00
2018-04-30T03:56:57.170Z,9.30
2018-04-30T03:57:57.167Z,8.80
2018-04-30T03:58:57.171Z,8.30
2018-04-30T03:59:57.164Z,8.60
2018-04-30T04:00:57.159Z,8.40
2018-04-30T04:01:57.165Z,8.70
2018-04-30T04:02:57.183Z,8.60
2018-04-30T04:03:57.157Z,8.50
2018-04-30T04:04:57.158Z,8.60
2018-04-30T04:05:57.154Z,8.60
2018-04-30T04:06:57.159Z,8.50
2018-04-30T04:07:57.150Z,8.60
2018-04-30T04:08:57.151Z,8.90
2018-04-30T04:09:57.148Z,8.30
2018-04-30T04:10:57.143Z,8.40
2018-04-30T04:11:57.145Z,8.40
2018-04-30T04:12:57.138Z,8.90
2018-04-30T04:13:57.142Z,8.50
2018-04-30T04:14:57.141Z,8.10
2018-04-30T04:15:57.139Z,8.40
2018-04-30T04:16:57.135Z,8.60
2018-04-30T04:17:57.134Z,8.40
2018-04-30T04:18:57.133Z,8.30
2018-04-30T04:19:57.130Z,8.50
2018-04-30T04:20:57.129Z,8.10
2018-04-30T04:21:57.127Z,8.20
2018-04-30T04:22:57.131Z,8.50
2018-04-30T04:23:57.131Z,8.20
2018-04-30T04:24:57.124Z,8.20
2018-04-30T04:25:57.123Z,8.20
2018-04-30T04:26:57.118Z,8.10
2018-04-30T04:27:57.116Z,7.90
2018-04-30T04:28:57.116Z,8.10
2018-04-30T04:29:57.115Z,7.60
2018-04-30T04:30:57.113Z,7.40
2018-04-30T04:31:57.116Z,7.90
2018-04-30T04:32:57.112Z,7.90
2018-04-30T04:33:57.108Z,7.70
2018-04-30T04:34:57.108Z,7.40
2018-04-30T04:35:57.106Z,7.40
2018-04-30T04:36:57.104Z,7.30
2018-04-30T04:37:57.104Z,7.60
2018-04-30T04:38:57.100Z,7.70
2018-04-30T04:39:57.095Z,7.70
2018-04-30T04:40:57.100Z,7.60
2018-04-30T04:41:57.095Z,7.40
2018-04-30T04:42:57.090Z,7.80
2018-04-30T04:43:57.093Z,7.50
2018-04-30T04:44:57.091Z,7.30
2018-04-30T04:45:57.090Z,7.50
2018-04-30T04:46:57.086Z,7.90
2018-04-30T04:47:57.089Z,7.40
2018-04-30T04:48:57.085Z,7.60
2018-04-30T04:49:57.084Z,7.70
2018-04-30T04:50:57.087Z,7.50
2018-04-30T04:51:57.080Z,7.50
2018-04-30T04:52:57.079Z,7.50
2018-04-30T04:53:57.077Z,7.60
2018-04-30T04:54:57.076Z,7.40
2018-04-30T04:55:57.078Z,7.80
2018-04-30T04:56:57.072Z,7.90
2018-04-30T04:57:57.071Z,7.40
2018-04-30T04:58:57.069Z,7.60
2018-04-30T04:59:57.071Z,7.30
2018-04-30T05:00:57.069Z,7.50
2018-04-30T05:01:57.072Z,7.70
2018-04-30T05:02:57.065Z,7.70
2018-04-30T05:03:57.062Z,7.50
2018-04-30T05:04:57.064Z,7.50
2018-04-30T05:05:57.063Z,7.30
2018-04-30T05:06:57.060Z,7.30
2018-04-30T05:07:57.061Z,7.10
2018-04-30T05:08:57.058Z,7.40
2018-04-30T05:09:57.060Z,7.90
2018-04-30T05:10:57.102Z,7.40
2018-04-30T05:11:57.056Z,7.40
2018-04-30T05:12:57.058Z,7.30
2018-04-30T05:13:57.056Z,7.10
2018-04-30T05:14:57.054Z,7.40
2018-04-30T05:15:57.052Z,7.50
2018-04-30T05:16:57.053Z,7.40
2018-04-30T05:17:57.050Z,7.80
2018-04-30T05:18:57.048Z,7.40
2018-04-30T05:19:57.049Z,7.50
2018-04-30T05:20:57.073Z,7.50
2018-04-30T05:21:57.047Z,7.80
2018-04-30T05:22:57.048Z,8.00
2018-04-30T05:23:57.046Z,7.30
2018-04-30T05:24:57.048Z,7.60
2018-04-30T05:25:57.046Z,7.10
2018-04-30T05:26:57.056Z,7.10
2018-04-30T05:27:57.045Z,7.20
2018-04-30T05:28:57.044Z,7.10
2018-04-30T05:29:57.044Z,7.20
2018-04-30T05:30:57.046Z,8.20
2018-04-30T05:31:57.047Z,8.00
2018-04-30T05:32:57.043Z,8.00
2018-04-30T05:33:57.124Z,8.00
2018-04-30T05:34:57.040Z,7.70
2018-04-30T05:35:57.041Z,7.80
2018-04-30T05:36:57.040Z,7.70
2018-04-30T05:37:57.044Z,8.20
2018-04-30T05:38:57.040Z,7.60
2018-04-30T05:39:57.039Z,7.70
2018-04-30T05:40:57.047Z,7.60
2018-04-30T05:41:57.043Z,8.00
2018-04-30T05:42:57.038Z,7.50
2018-04-30T05:43:57.040Z,7.90
2018-04-30T05:44:57.039Z,7.70
2018-04-30T05:45:57.042Z,7.70
2018-04-30T05:46:57.046Z,7.60
2018-04-30T05:47:57.085Z,8.00
2018-04-30T05:48:57.047Z,7.80
2018-04-30T05:49:57.043Z,7.80
2018-04-30T05:50:57.040Z,7.30
2018-04-30T05:51:57.043Z,7.50
2018-04-30T05:52:57.047Z,7.40
2018-04-30T05:53:57.047Z,7.40
2018-04-30T05:54:57.047Z,8.30
2018-04-30T05:55:57.047Z,7.40
2018-04-30T05:56:57.045Z,7.40
2018-04-30T05:57:57.053Z,7.80
2018-04-30T05:58:57.049Z,7.40
2018-04-30T05:59:57.106Z,7.40
2018-04-30T06:00:57.051Z,7.80
2018-04-30T06:01:57.054Z,7.10
2018-04-30T06:02:57.053Z,7.70
2018-04-30T06:03:57.055Z,7.90
2018-04-30T06:04:57.057Z,7.80
2018-04-30T06:05:57.056Z,7.50
2018-04-30T06:06:57.057Z,7.50
2018-04-30T06:07:57.059Z,7.20
2018-04-30T06:08:57.059Z,7.40
2018-04-30T06:09:57.062Z,7.40
2018-04-30T06:10:57.070Z,8.30
2018-04-30T06:11:57.065Z,8.10
2018-04-30T06:12:57.065Z,7.70
2018-04-30T06:13:57.066Z,8.00
2018-04-30T06:14:57.067Z,8.20
2018-04-30T06:15:57.071Z,7.80
2018-04-30T06:16:57.076Z,7.40
2018-04-30T06:17:57.071Z,7.40
2018-04-30T06:18:57.069Z,7.80
2018-04-30T06:19:57.074Z,7.80
2018-04-30T06:20:57.073Z,7.70
2018-04-30T06:21:57.077Z,7.70
2018-04-30T06:22:57.078Z,8.10
2018-04-30T06:23:57.076Z,7.20
2018-04-30T06:24:57.080Z,7.60
2018-04-30T06:25:57.082Z,7.90
2018-04-30T06:26:57.140Z,7.50
2018-04-30T06:27:57.084Z,7.30
2018-04-30T06:28:57.085Z,7.70
2018-04-30T06:29:57.087Z,7.40
2018-04-30T06:30:57.093Z,7.60
2018-04-30T06:31:57.091Z,7.90
2018-04-30T06:32:57.093Z,8.10
2018-04-30T06:33:57.096Z,7.70
2018-04-30T06:34:57.095Z,8.30
2018-04-30T06:35:57.103Z,8.20
2018-04-30T06:36:57.093Z,7.90
2018-04-30T06:37:57.100Z,8.10
2018-04-30T06:38:57.109Z,7.50
2018-04-30T06:39:57.102Z,7.50
2018-04-30T06:40:57.109Z,7.50
2018-04-30T06:41:57.108Z,7.40
2018-04-30T06:42:57.111Z,7.80
2018-04-30T06:43:57.108Z,7.30
2018-04-30T06:44:57.112Z,7.90
2018-04-30T06:45:57.123Z,7.60
2018-04-30T06:46:57.121Z,7.40
2018-04-30T06:47:57.122Z,7.40
2018-04-30T06:48:57.126Z,7.40
2018-04-30T06:49:57.128Z,7.90
2018-04-30T06:50:57.194Z,7.80
2018-04-30T06:51:57.134Z,7.50
2018-04-30T06:52:57.138Z,7.40
2018-04-30T06:53:57.140Z,7.40
2018-04-30T06:54:57.142Z,7.50
2018-04-30T06:55:57.145Z,7.50
2018-04-30T06:56:57.150Z,7.80
2018-04-30T06:57:57.157Z,7.50
2018-04-30T06:58:57.156Z,7.60
2018-04-30T06:59:57.163Z,7.80
2018-04-30T07:00:57.164Z,7.40
2018-04-30T07:01:57.175Z,7.20
2018-04-30T07:02:57.165Z,7.60
2018-04-30T07:03:57.176Z,7.90
2018-04-30T07:04:57.183Z,7.50
2018-04-30T07:05:57.185Z,7.90
2018-04-30T07:06:57.187Z,7.50
2018-04-30T07:07:57.191Z,7.50
2018-04-30T07:08:57.199Z,7.60
2018-04-30T07:09:57.202Z,7.60
2018-04-30T07:10:57.208Z,7.40
2018-04-30T07:11:57.211Z,7.40
2018-04-30T07:12:57.217Z,7.50
2018-04-30T07:13:57.222Z,7.30
2018-04-30T07:14:57.224Z,7.50
2018-04-30T07:15:57.230Z,7.30
2018-04-30T07:16:57.236Z,7.70
2018-04-30T07:17:57.240Z,7.10
2018-04-30T07:18:57.251Z,7.10
2018-04-30T07:19:57.249Z,7.30
2018-04-30T07:20:57.255Z,7.40
2018-04-30T07:21:57.261Z,7.40
2018-04-30T07:22:57.264Z,7.30
2018-04-30T07:23:57.279Z,8.00
2018-04-30T07:24:57.280Z,7.30
2018-04-30T07:25:57.283Z,7.30
2018-04-30T07:26:57.325Z,7.10
2018-04-30T07:27:57.295Z,7.70
2018-04-30T07:28:57.298Z,7.40
2018-04-30T07:29:57.305Z,7.60
2018-04-30T07:30:57.311Z,7.00
2018-04-30T07:31:57.319Z,6.90
2018-04-30T07:32:57.324Z,7.40
2018-04-30T07:33:57.329Z,7.30
2018-04-30T07:34:57.335Z,7.60
2018-04-30T07:35:57.341Z,7.40
2018-04-30T07:36:57.349Z,7.30
2018-04-30T07:37:57.354Z,7.20
2018-04-30T07:38:57.367Z,7.30
2018-04-30T07:39:57.367Z,7.10
2018-04-30T07:40:57.374Z,6.80
2018-04-30T07:41:57.382Z,6.90
2018-04-30T07:42:57.387Z,7.40
2018-04-30T07:43:57.396Z,6.80
2018-04-30T07:44:57.402Z,7.20
2018-04-30T07:45:57.417Z,6.90
2018-04-30T07:46:57.418Z,6.90
2018-04-30T07:47:57.423Z,7.50
2018-04-30T07:48:57.438Z,7.20
2018-04-30T07:49:57.472Z,7.40
2018-04-30T07:50:57.447Z,7.20
2018-04-30T07:51:57.459Z,7.30
2018-04-30T07:52:57.565Z,7.30
2018-04-30T07:53:57.469Z,7.00
2018-04-30T07:54:57.475Z,7.20
2018-04-30T07:55:57.482Z,7.30
2018-04-30T07:56:57.495Z,7.00
2018-04-30T07:57:57.510Z,7.50
2018-04-30T07:58:57.524Z,7.00
2018-04-30T07:59:57.516Z,7.40
2018-04-30T08:00:57.526Z,7.60
2018-04-30T08:01:57.916Z,7.00
2018-04-30T08:02:57.645Z,7.00
2018-04-30T08:03:57.550Z,7.00
2018-04-30T08:04:57.557Z,7.50
2018-04-30T08:05:57.566Z,7.30
2018-04-30T08:06:57.573Z,7.50
2018-04-30T08:07:57.590Z,7.20
2018-04-30T08:08:57.595Z,7.50
2018-04-30T08:09:57.603Z,7.30
2018-04-30T08:10:57.612Z,7.60
2018-04-30T08:11:57.619Z,7.60
2018-04-30T08:12:57.790Z,7.90
2018-04-30T08:13:57.638Z,7.20
2018-04-30T08:14:57.695Z,7.40
2018-04-30T08:15:57.657Z,6.90
2018-04-30T08:16:57.666Z,7.50
2018-04-30T08:17:57.757Z,7.00
2018-04-30T08:18:57.777Z,7.10
2018-04-30T08:19:57.698Z,8.10
2018-04-30T08:20:57.799Z,7.90
2018-04-30T08:21:57.715Z,7.40
2018-04-30T08:22:57.853Z,7.50
2018-04-30T08:23:57.774Z,8.00
2018-04-30T08:24:57.753Z,8.00
2018-04-30T08:25:57.757Z,8.20
2018-04-30T08:26:57.809Z,7.80
2018-04-30T08:27:57.776Z,7.70
2018-04-30T08:28:57.787Z,7.20
2018-04-30T08:29:57.799Z,7.80
2018-04-30T08:30:57.810Z,7.50
2018-04-30T08:31:57.826Z,7.90
2018-04-30T08:32:57.859Z,7.90
2018-04-30T08:33:57.852Z,7.80
2018-04-30T08:34:57.847Z,7.30
2018-04-30T08:35:57.864Z,7.90
2018-04-30T08:36:57.875Z,8.20
2018-04-30T08:37:58.059Z,8.00
2018-04-30T08:38:57.902Z,7.40
2018-04-30T08:39:57.907Z,8.00
2018-04-30T08:40:57.913Z,7.70
2018-04-30T08:41:57.924Z,7.40
2018-04-30T08:42:57.933Z,8.00
2018-04-30T08:43:57.942Z,8.00
2018-04-30T08:44:57.966Z,7.90
2018-04-30T08:45:57.964Z,7.90
2018-04-30T08:46:58.000Z,7.70
2018-04-30T08:47:57.986Z,8.00
2018-04-30T08:48:57.995Z,7.90
2018-04-30T08:49:58.012Z,8.40
2018-04-30T08:50:58.011Z,8.30
2018-04-30T08:51:58.203Z,8.30
2018-04-30T08:52:58.029Z,8.40
2018-04-30T08:53:58.039Z,8.70
2018-04-30T08:54:58.061Z,8.10
2018-04-30T08:55:58.054Z,8.60
2018-04-30T08:56:58.065Z,8.40
2018-04-30T08:57:58.076Z,8.30
2018-04-30T08:58:58.091Z,8.10
2018-04-30T08:59:58.097Z,8.40
2018-04-30T09:00:58.098Z,8.20
2018-04-30T09:01:58.163Z,7.90
2018-04-30T09:02:58.113Z,7.90
2018-04-30T09:03:58.126Z,7.80
2018-04-30T09:04:58.131Z,7.50
2018-04-30T09:05:58.141Z,8.10
2018-04-30T09:06:58.144Z,7.90
2018-04-30T09:07:58.188Z,8.50
2018-04-30T09:08:58.163Z,8.00
2018-04-30T09:09:58.239Z,8.20
2018-04-30T09:10:58.217Z,8.40
2018-04-30T09:11:58.181Z,8.10
2018-04-30T09:12:58.191Z,7.90
2018-04-30T09:13:58.198Z,7.80
2018-04-30T09:14:58.209Z,7.90
2018-04-30T09:15:58.209Z,7.80
2018-04-30T09:16:58.217Z,8.10
2018-04-30T09:17:58.227Z,8.10
2018-04-30T09:18:58.230Z,7.80
2018-04-30T09:19:58.236Z,7.80
2018-04-30T09:20:58.243Z,8.20
2018-04-30T09:21:58.249Z,8.40
2018-04-30T09:22:58.256Z,7.90
2018-04-30T09:23:58.263Z,7.90
2018-04-30T09:24:58.269Z,7.60
2018-04-30T09:25:58.275Z,7.90
2018-04-30T09:26:58.286Z,8.30
2018-04-30T09:27:58.296Z,7.70
2018-04-30T09:28:58.375Z,7.80
2018-04-30T09:29:58.300Z,7.60
2018-04-30T09:30:58.306Z,7.90
2018-04-30T09:31:58.312Z,8.10
2018-04-30T09:32:58.319Z,8.20
2018-04-30T09:33:58.325Z,7.50
2018-04-30T09:34:58.392Z,8.00
2018-04-30T09:35:58.339Z,8.20
2018-04-30T09:36:58.345Z,8.10
2018-04-30T09:37:58.352Z,7.80
2018-04-30T09:38:58.358Z,8.00
2018-04-30T09:39:58.364Z,7.60
2018-04-30T09:40:58.373Z,7.80
2018-04-30T09:41:58.374Z,8.50
2018-04-30T09:42:58.379Z,8.10
2018-04-30T09:43:58.387Z,8.00
2018-04-30T09:44:58.404Z,8.80
2018-04-30T09:45:58.398Z,8.00
2018-04-30T09:46:58.406Z,8.10
2018-04-30T09:47:58.410Z,8.00
2018-04-30T09:48:58.417Z,7.60
2018-04-30T09:49:58.423Z,7.40
2018-04-30T09:50:58.428Z,7.20
2018-04-30T09:51:58.440Z,7.70
2018-04-30T09:52:58.440Z,7.70
2018-04-30T09:53:58.446Z,7.60
2018-04-30T09:54:58.452Z,7.20
2018-04-30T09:55:58.456Z,7.30
2018-04-30T09:56:58.464Z,7.20
2018-04-30T09:57:58.546Z,7.50
2018-04-30T09:58:58.473Z,7.10
2018-04-30T09:59:58.482Z,7.10
2018-04-30T10:00:58.486Z,7.10
2018-04-30T10:01:58.492Z,7.10
2018-04-30T10:02:58.498Z,7.20
2018-04-30T10:03:58.505Z,6.80
2018-04-30T10:04:58.592Z,7.00
2018-04-30T10:05:58.518Z,7.10
2018-04-30T10:06:58.522Z,6.80
2018-04-30T10:07:58.529Z,7.50
2018-04-30T10:08:58.534Z,7.80
2018-04-30T10:09:58.542Z,7.70
2018-04-30T10:10:58.546Z,7.70
2018-04-30T10:11:58.554Z,7.20
2018-04-30T10:12:58.559Z,7.50
2018-04-30T10:13:58.601Z,7.30
2018-04-30T10:14:58.752Z,7.00
2018-04-30T10:15:58.640Z,7.50
2018-04-30T10:16:58.725Z,7.70
2018-04-30T10:17:59.551Z,8.00
2018-04-30T10:18:58.893Z,7.50
2018-04-30T10:19:58.613Z,7.90
2018-04-30T10:20:58.615Z,8.20
2018-04-30T10:21:58.614Z,8.30
2018-04-30T10:22:58.624Z,8.10
2018-04-30T10:23:58.771Z,8.30
2018-04-30T10:24:58.638Z,8.50
2018-04-30T10:25:58.653Z,8.70
2018-04-30T10:26:58.911Z,8.80
2018-04-30T10:27:58.721Z,8.80
2018-04-30T10:28:58.715Z,8.50
2018-04-30T10:29:58.852Z,9.50
2018-04-30T10:30:58.673Z,9.20
2018-04-30T10:31:58.690Z,9.10
2018-04-30T10:32:58.808Z,8.80
2018-04-30T10:33:58.727Z,8.90
2018-04-30T10:34:58.724Z,8.30
2018-04-30T10:35:59.142Z,8.20
2018-04-30T10:36:58.701Z,8.70
2018-04-30T10:37:58.748Z,7.90
2018-04-30T10:38:58.938Z,7.50
2018-04-30T10:39:58.719Z,6.90
2018-04-30T10:40:58.744Z,7.50
2018-04-30T10:41:58.727Z,7.10
2018-04-30T10:42:58.805Z,6.70
2018-04-30T10:43:58.758Z,6.80
2018-04-30T10:44:58.756Z,5.80
2018-04-30T10:45:58.769Z,5.80
2018-04-30T10:46:58.762Z,5.80
2018-04-30T10:47:58.777Z,6.00
2018-04-30T10:48:58.851Z,6.10
2018-04-30T10:49:58.778Z,5.70
2018-04-30T10:50:58.805Z,5.40
2018-04-30T10:51:58.793Z,5.00
2018-04-30T10:52:58.801Z,4.90
2018-04-30T10:53:58.807Z,4.40
2018-04-30T10:54:58.813Z,4.40
2018-04-30T10:55:58.816Z,4.40
2018-04-30T10:56:58.821Z,4.00
2018-04-30T10:57:58.827Z,4.30
2018-04-30T10:58:58.832Z,4.00
2018-04-30T10:59:58.841Z,3.90
2018-04-30T11:00:58.843Z,3.60
2018-04-30T11:01:58.851Z,3.90
2018-04-30T11:02:58.857Z,3.10
2018-04-30T11:03:58.864Z,3.00
2018-04-30T11:04:58.868Z,3.20
2018-04-30T11:05:58.872Z,3.30
2018-04-30T11:06:58.883Z,3.30
2018-04-30T11:07:58.890Z,3.10
2018-04-30T11:08:58.890Z,2.90
2018-04-30T11:09:58.902Z,2.90
2018-04-30T11:10:58.901Z,2.90
2018-04-30T11:11:58.908Z,2.80
2018-04-30T11:12:58.920Z,3.00
2018-04-30T11:13:58.919Z,2.80
2018-04-30T11:14:58.923Z,2.90
2018-04-30T11:15:58.929Z,3.00
2018-04-30T11:16:58.935Z,2.90
2018-04-30T11:17:58.939Z,2.80
2018-04-30T11:18:58.945Z,2.50
2018-04-30T11:19:58.952Z,3.00
2018-04-30T11:20:58.956Z,2.90
2018-04-30T11:21:58.961Z,3.10
2018-04-30T11:22:58.966Z,2.60
2018-04-30T11:23:58.967Z,2.70
2018-04-30T11:24:59.043Z,2.70
2018-04-30T11:25:58.984Z,2.90
2018-04-30T11:26:58.988Z,2.50
2018-04-30T11:27:58.994Z,2.80
2018-04-30T11:28:58.999Z,2.60
2018-04-30T11:29:59.005Z,2.60
2018-04-30T11:30:59.015Z,2.90
2018-04-30T11:31:59.013Z,2.80
2018-04-30T11:32:59.018Z,2.50
2018-04-30T11:33:59.039Z,2.60
2018-04-30T11:34:59.029Z,2.50
2018-04-30T11:35:59.035Z,2.60
2018-04-30T11:36:59.041Z,2.70
2018-04-30T11:37:59.042Z,2.40
2018-04-30T11:38:59.048Z,2.70
2018-04-30T11:39:59.194Z,2.20
2018-04-30T11:40:59.068Z,2.30
2018-04-30T11:41:59.090Z,2.20
2018-04-30T11:42:59.066Z,2.40
2018-04-30T11:43:59.072Z,2.30
2018-04-30T11:44:59.093Z,2.10
2018-04-30T11:45:59.155Z,2.20
2018-04-30T11:46:59.087Z,2.20
2018-04-30T11:47:59.116Z,2.10
2018-04-30T11:48:59.149Z,2.20
2018-04-30T11:49:59.099Z,2.10
2018-04-30T11:50:59.176Z,2.00
2018-04-30T11:51:59.235Z,1.90
2018-04-30T11:52:59.116Z,2.00
2018-04-30T11:53:59.113Z,1.90
2018-04-30T11:54:59.116Z,2.10
2018-04-30T11:55:59.121Z,2.00
2018-04-30T11:56:59.128Z,2.00
2018-04-30T11:57:59.131Z,2.10
2018-04-30T11:58:59.134Z,2.10
2018-04-30T11:59:59.142Z,1.90
2018-04-30T12:00:59.231Z,1.90
2018-04-30T12:01:59.150Z,1.80
2018-04-30T12:02:59.151Z,2.30
2018-04-30T12:03:59.206Z,2.10
2018-04-30T12:04:59.288Z,2.00
2018-04-30T12:05:59.161Z,1.80
2018-04-30T12:06:59.234Z,2.10
2018-04-30T12:07:59.178Z,2.00
2018-04-30T12:08:59.174Z,2.00
2018-04-30T12:09:59.178Z,1.90
2018-04-30T12:10:59.464Z,1.80
2018-04-30T12:11:59.273Z,1.80
2018-04-30T12:12:59.189Z,1.80
2018-04-30T12:13:59.193Z,1.90
2018-04-30T12:14:59.310Z,1.80
2018-04-30T12:15:59.294Z,1.80
2018-04-30T12:16:59.207Z,1.60
2018-04-30T12:17:59.212Z,1.60
2018-04-30T12:18:59.212Z,1.60
2018-04-30T12:19:59.215Z,1.80
2018-04-30T12:20:59.221Z,1.60
2018-04-30T12:21:59.232Z,1.70
2018-04-30T12:22:59.249Z,1.60
2018-04-30T12:23:59.232Z,1.80
2018-04-30T12:24:59.239Z,1.60
2018-04-30T12:25:59.246Z,1.90
2018-04-30T12:26:59.246Z,1.80
2018-04-30T12:27:59.250Z,1.50
2018-04-30T12:28:59.251Z,1.60
2018-04-30T12:29:59.259Z,1.60
2018-04-30T12:30:59.259Z,1.70
2018-04-30T12:31:59.264Z,1.50
2018-04-30T12:32:59.269Z,1.70
2018-04-30T12:33:59.275Z,1.60
2018-04-30T12:34:59.279Z,1.70
2018-04-30T12:35:59.299Z,1.70
2018-04-30T12:36:59.284Z,1.40
2018-04-30T12:37:59.289Z,1.50
2018-04-30T12:38:59.295Z,1.50
2018-04-30T12:39:59.297Z,1.30
2018-04-30T12:40:59.360Z,1.40
2018-04-30T12:41:59.306Z,1.20
2018-04-30T12:42:59.487Z,1.20
2018-04-30T12:43:59.314Z,1.20
2018-04-30T12:44:59.543Z,1.40
2018-04-30T12:45:59.322Z,1.20
2018-04-30T12:46:59.322Z,1.20
2018-04-30T12:47:59.411Z,1.30
2018-04-30T12:48:59.352Z,1.20
2018-04-30T12:49:59.665Z,1.10
2018-04-30T12:50:59.773Z,1.10
2018-04-30T12:51:59.450Z,1.10
2018-04-30T12:52:59.643Z,1.10
2018-04-30T12:53:59.355Z,1.10
2018-04-30T12:54:59.359Z,1.10
2018-04-30T12:55:59.573Z,1.00
2018-04-30T12:56:59.379Z,1.30
2018-04-30T12:57:59.489Z,1.30
2018-04-30T12:58:59.416Z,1.00
2018-04-30T12:59:59.387Z,1.00
2018-04-30T13:00:59.384Z,1.10
2018-04-30T13:01:59.415Z,1.00
2018-04-30T13:02:59.612Z,0.90
2018-04-30T13:03:59.495Z,1.00
2018-04-30T13:04:59.527Z,1.00
2018-04-30T13:05:59.676Z,1.00
2018-04-30T13:06:59.423Z,0.90
2018-04-30T13:07:59.472Z,0.90
2018-04-30T13:08:59.430Z,0.90
2018-04-30T13:09:59.422Z,1.00
2018-04-30T13:10:59.426Z,0.70
2018-04-30T13:11:59.430Z,0.90
2018-04-30T13:12:59.629Z,0.90
2018-04-30T13:14:00.232Z,0.80
2018-04-30T13:14:59.590Z,0.90
2018-04-30T13:15:59.455Z,1.00